Archival Weather

Chicago O'Hare International

Chicago, Illinois (KORD)

Report from: Thursday, March 21, 2024 6:51 AM CDT
Current time: Tuesday, May 21, 2024 11:27 AM CDT

Current weather – Weather history – Daily summaries
Weather forecast

Temperature-1.7°C (28.9°F)
Dew point-6.7°C (19.9°F)
Winds Calm
Visibility10 mi. (16.1 km)
Clouds Few clouds 3,700 ft. (1,128 m)
Scattered clouds 10,000 ft. (3,048 m)
Ceiling: Broken clouds 14,000 ft. (4,267 m)
Broken clouds 22,000 ft. (6,706 m)
Altimeter30.27 in.Hg (1025 mB)
Relative humidity69 %
Density altitude-2,416 ft. (-736 m)
Sea-level pressure102.6 kPa (1026 mB, 30.29 in.Hg)
Max temp last 6 hours-1.1°C (30.0°F)
Min temp last 6 hours-2.8°C (27.0°F)
Remarks System requires maintenance
Automated weather observing station with precipitation discriminator
Pressure rising more quickly
Flight conditions Visual Meteorological Conditions
Raw dataKORD 211151Z 00000KT 10SM FEW037 SCT100 BKN140 BKN220 M02/M07 A3027 RMK AO2 SLP258 T10171067 11011 21028 53011 $
An error has occurred. This application may no longer respond until reloaded. Reload 🗙